sensor_id;sensor_type;location;lat;lon;timestamp;P1;durP1;ratioP1;P2;durP2;ratioP2
32198;SDS011;19221;42.656;21.156;2023-03-01T00:01:33;19.65;;;9.98;;
32198;SDS011;19221;42.656;21.156;2023-03-01T00:03:59;18.50;;;10.30;;
32198;SDS011;19221;42.656;21.156;2023-03-01T00:06:25;16.13;;;9.25;;
32198;SDS011;19221;42.656;21.156;2023-03-01T00:08:51;17.85;;;8.57;;
32198;SDS011;19221;42.656;21.156;2023-03-01T00:11:23;15.48;;;8.95;;
32198;SDS011;19221;42.656;21.156;2023-03-01T00:13:50;14.02;;;8.30;;
32198;SDS011;19221;42.656;21.156;2023-03-01T00:16:19;14.35;;;8.65;;
32198;SDS011;19221;42.656;21.156;2023-03-01T00:18:45;16.33;;;8.82;;
32198;SDS011;19221;42.656;21.156;2023-03-01T00:21:11;14.00;;;7.57;;
32198;SDS011;19221;42.656;21.156;2023-03-01T00:23:37;15.35;;;8.65;;
32198;SDS011;19221;42.656;21.156;2023-03-01T00:26:07;12.30;;;7.30;;
32198;SDS011;19221;42.656;21.156;2023-03-01T00:28:33;12.67;;;7.43;;
32198;SDS011;19221;42.656;21.156;2023-03-01T00:31:32;12.05;;;7.03;;
32198;SDS011;19221;42.656;21.156;2023-03-01T00:36:16;13.57;;;6.65;;
32198;SDS011;19221;42.656;21.156;2023-03-01T00:38:42;11.98;;;7.07;;
32198;SDS011;19221;42.656;21.156;2023-03-01T00:41:10;10.40;;;6.13;;
32198;SDS011;19221;42.656;21.156;2023-03-01T00:43:36;7.03;;;5.07;;
32198;SDS011;19221;42.656;21.156;2023-03-01T00:46:07;8.77;;;5.57;;
32198;SDS011;19221;42.656;21.156;2023-03-01T00:48:34;9.13;;;6.03;;
32198;SDS011;19221;42.656;21.156;2023-03-01T00:51:16;9.32;;;5.45;;
32198;SDS011;19221;42.656;21.156;2023-03-01T00:53:41;12.45;;;6.20;;
32198;SDS011;19221;42.656;21.156;2023-03-01T00:56:08;9.20;;;6.07;;
32198;SDS011;19221;42.656;21.156;2023-03-01T00:58:34;14.30;;;6.65;;
32198;SDS011;19221;42.656;21.156;2023-03-01T01:01:00;14.60;;;8.27;;
32198;SDS011;19221;42.656;21.156;2023-03-01T01:03:26;15.60;;;7.72;;
32198;SDS011;19221;42.656;21.156;2023-03-01T01:05:52;18.05;;;9.30;;
32198;SDS011;19221;42.656;21.156;2023-03-01T01:08:18;12.48;;;7.60;;
32198;SDS011;19221;42.656;21.156;2023-03-01T01:10:44;14.25;;;6.93;;
32198;SDS011;19221;42.656;21.156;2023-03-01T01:13:10;12.25;;;7.65;;
32198;SDS011;19221;42.656;21.156;2023-03-01T01:15:36;14.98;;;6.65;;
32198;SDS011;19221;42.656;21.156;2023-03-01T01:18:02;12.02;;;7.38;;
32198;SDS011;19221;42.656;21.156;2023-03-01T01:20:28;15.93;;;7.28;;
32198;SDS011;19221;42.656;21.156;2023-03-01T01:22:53;14.32;;;7.35;;
32198;SDS011;19221;42.656;21.156;2023-03-01T01:25:19;12.35;;;7.47;;
32198;SDS011;19221;42.656;21.156;2023-03-01T01:27:45;16.50;;;7.47;;
32198;SDS011;19221;42.656;21.156;2023-03-01T01:30:11;16.25;;;8.35;;
32198;SDS011;19221;42.656;21.156;2023-03-01T01:32:37;11.50;;;7.95;;
32198;SDS011;19221;42.656;21.156;2023-03-01T01:35:02;13.65;;;8.07;;
32198;SDS011;19221;42.656;21.156;2023-03-01T01:37:28;14.63;;;8.00;;
32198;SDS011;19221;42.656;21.156;2023-03-01T01:39:59;12.63;;;7.35;;
32198;SDS011;19221;42.656;21.156;2023-03-01T01:42:25;12.73;;;8.25;;
32198;SDS011;19221;42.656;21.156;2023-03-01T01:47:36;15.55;;;9.00;;
32198;SDS011;19221;42.656;21.156;2023-03-01T01:50:02;14.82;;;8.88;;
32198;SDS011;19221;42.656;21.156;2023-03-01T01:52:34;15.57;;;9.82;;
32198;SDS011;19221;42.656;21.156;2023-03-01T01:55:11;14.75;;;9.40;;
32198;SDS011;19221;42.656;21.156;2023-03-01T01:57:41;18.05;;;9.30;;
32198;SDS011;19221;42.656;21.156;2023-03-01T02:02:36;12.93;;;8.80;;
32198;SDS011;19221;42.656;21.156;2023-03-01T02:05:06;18.40;;;9.88;;
32198;SDS011;19221;42.656;21.156;2023-03-01T02:07:35;16.13;;;10.63;;
32198;SDS011;19221;42.656;21.156;2023-03-01T02:10:02;17.08;;;8.82;;
32198;SDS011;19221;42.656;21.156;2023-03-01T02:12:28;15.18;;;8.20;;
32198;SDS011;19221;42.656;21.156;2023-03-01T02:14:53;15.93;;;8.70;;
32198;SDS011;19221;42.656;21.156;2023-03-01T02:17:19;14.75;;;9.10;;
32198;SDS011;19221;42.656;21.156;2023-03-01T02:22:22;14.52;;;8.90;;
32198;SDS011;19221;42.656;21.156;2023-03-01T02:29:47;15.75;;;9.93;;
32198;SDS011;19221;42.656;21.156;2023-03-01T02:32:12;21.55;;;12.18;;
32198;SDS011;19221;42.656;21.156;2023-03-01T02:34:40;23.10;;;11.60;;
32198;SDS011;19221;42.656;21.156;2023-03-01T02:37:10;18.00;;;9.95;;
32198;SDS011;19221;42.656;21.156;2023-03-01T02:39:42;17.92;;;9.48;;
32198;SDS011;19221;42.656;21.156;2023-03-01T02:42:13;18.55;;;8.55;;
32198;SDS011;19221;42.656;21.156;2023-03-01T02:44:40;14.00;;;8.25;;
32198;SDS011;19221;42.656;21.156;2023-03-01T02:47:05;17.90;;;7.88;;
32198;SDS011;19221;42.656;21.156;2023-03-01T02:49:32;11.13;;;7.70;;
32198;SDS011;19221;42.656;21.156;2023-03-01T02:57:09;15.70;;;7.90;;
32198;SDS011;19221;42.656;21.156;2023-03-01T02:59:35;17.23;;;8.13;;
32198;SDS011;19221;42.656;21.156;2023-03-01T03:02:05;13.38;;;8.23;;
32198;SDS011;19221;42.656;21.156;2023-03-01T03:04:31;12.23;;;7.22;;
32198;SDS011;19221;42.656;21.156;2023-03-01T03:06:57;13.38;;;7.80;;
32198;SDS011;19221;42.656;21.156;2023-03-01T03:09:22;14.60;;;8.02;;
32198;SDS011;19221;42.656;21.156;2023-03-01T03:11:48;18.45;;;9.85;;
32198;SDS011;19221;42.656;21.156;2023-03-01T03:14:14;15.05;;;9.07;;
32198;SDS011;19221;42.656;21.156;2023-03-01T03:16:41;16.33;;;9.90;;
32198;SDS011;19221;42.656;21.156;2023-03-01T03:19:07;13.07;;;9.00;;
32198;SDS011;19221;42.656;21.156;2023-03-01T03:21:33;18.30;;;9.02;;
32198;SDS011;19221;42.656;21.156;2023-03-01T03:23:58;14.95;;;9.00;;
32198;SDS011;19221;42.656;21.156;2023-03-01T03:26:24;13.65;;;8.27;;
32198;SDS011;19221;42.656;21.156;2023-03-01T03:28:50;12.15;;;7.55;;
32198;SDS011;19221;42.656;21.156;2023-03-01T03:31:15;11.65;;;7.28;;
32198;SDS011;19221;42.656;21.156;2023-03-01T03:33:41;15.30;;;7.95;;
32198;SDS011;19221;42.656;21.156;2023-03-01T03:36:07;16.33;;;8.38;;
32198;SDS011;19221;42.656;21.156;2023-03-01T03:38:38;12.93;;;7.93;;
32198;SDS011;19221;42.656;21.156;2023-03-01T03:41:05;18.05;;;8.85;;
32198;SDS011;19221;42.656;21.156;2023-03-01T03:43:33;15.15;;;8.63;;
32198;SDS011;19221;42.656;21.156;2023-03-01T03:45:59;15.70;;;8.38;;
32198;SDS011;19221;42.656;21.156;2023-03-01T03:48:25;13.82;;;8.45;;
32198;SDS011;19221;42.656;21.156;2023-03-01T03:50:54;15.05;;;9.27;;
32198;SDS011;19221;42.656;21.156;2023-03-01T03:53:21;13.55;;;8.82;;
32198;SDS011;19221;42.656;21.156;2023-03-01T03:55:47;16.30;;;8.60;;
32198;SDS011;19221;42.656;21.156;2023-03-01T03:58:14;17.05;;;9.20;;
32198;SDS011;19221;42.656;21.156;2023-03-01T04:00:41;12.52;;;7.78;;
32198;SDS011;19221;42.656;21.156;2023-03-01T04:03:07;14.63;;;6.80;;
32198;SDS011;19221;42.656;21.156;2023-03-01T04:05:33;10.68;;;6.22;;
32198;SDS011;19221;42.656;21.156;2023-03-01T04:07:59;11.60;;;6.78;;
32198;SDS011;19221;42.656;21.156;2023-03-01T04:10:29;9.15;;;6.35;;
32198;SDS011;19221;42.656;21.156;2023-03-01T04:12:54;11.38;;;6.53;;
32198;SDS011;19221;42.656;21.156;2023-03-01T04:15:23;10.52;;;7.53;;
32198;SDS011;19221;42.656;21.156;2023-03-01T04:17:50;11.02;;;7.03;;
32198;SDS011;19221;42.656;21.156;2023-03-01T04:20:18;11.55;;;7.20;;
32198;SDS011;19221;42.656;21.156;2023-03-01T04:22:57;12.48;;;7.70;;
32198;SDS011;19221;42.656;21.156;2023-03-01T04:25:23;12.48;;;7.25;;
32198;SDS011;19221;42.656;21.156;2023-03-01T04:27:49;11.13;;;6.88;;
32198;SDS011;19221;42.656;21.156;2023-03-01T04:30:14;10.43;;;6.78;;
32198;SDS011;19221;42.656;21.156;2023-03-01T04:32:40;9.40;;;6.65;;
32198;SDS011;19221;42.656;21.156;2023-03-01T04:35:06;11.45;;;7.32;;
32198;SDS011;19221;42.656;21.156;2023-03-01T04:37:32;12.60;;;7.07;;
32198;SDS011;19221;42.656;21.156;2023-03-01T04:39:57;11.35;;;7.43;;
32198;SDS011;19221;42.656;21.156;2023-03-01T04:42:23;9.27;;;6.07;;
32198;SDS011;19221;42.656;21.156;2023-03-01T04:44:49;9.25;;;6.20;;
32198;SDS011;19221;42.656;21.156;2023-03-01T04:47:16;10.00;;;6.38;;
32198;SDS011;19221;42.656;21.156;2023-03-01T04:49:42;12.30;;;6.78;;
32198;SDS011;19221;42.656;21.156;2023-03-01T04:52:08;12.07;;;7.20;;
32198;SDS011;19221;42.656;21.156;2023-03-01T04:54:34;20.67;;;10.32;;
32198;SDS011;19221;42.656;21.156;2023-03-01T04:57:01;20.65;;;10.43;;
32198;SDS011;19221;42.656;21.156;2023-03-01T04:59:27;21.38;;;9.88;;
32198;SDS011;19221;42.656;21.156;2023-03-01T05:01:53;18.45;;;9.88;;
32198;SDS011;19221;42.656;21.156;2023-03-01T05:04:22;16.08;;;9.38;;
32198;SDS011;19221;42.656;21.156;2023-03-01T05:06:48;16.83;;;9.52;;
32198;SDS011;19221;42.656;21.156;2023-03-01T05:09:14;17.02;;;9.52;;
32198;SDS011;19221;42.656;21.156;2023-03-01T05:11:39;17.77;;;9.38;;
32198;SDS011;19221;42.656;21.156;2023-03-01T05:14:05;18.45;;;9.02;;
32198;SDS011;19221;42.656;21.156;2023-03-01T05:16:31;13.88;;;8.18;;
32198;SDS011;19221;42.656;21.156;2023-03-01T05:18:57;16.25;;;8.68;;
32198;SDS011;19221;42.656;21.156;2023-03-01T05:21:24;13.10;;;7.40;;
32198;SDS011;19221;42.656;21.156;2023-03-01T05:23:50;13.73;;;8.10;;
32198;SDS011;19221;42.656;21.156;2023-03-01T05:26:16;13.23;;;8.55;;
32198;SDS011;19221;42.656;21.156;2023-03-01T05:28:43;15.85;;;9.57;;
32198;SDS011;19221;42.656;21.156;2023-03-01T05:31:10;17.27;;;9.68;;
32198;SDS011;19221;42.656;21.156;2023-03-01T05:33:36;22.50;;;10.38;;
32198;SDS011;19221;42.656;21.156;2023-03-01T05:36:03;28.92;;;12.73;;
32198;SDS011;19221;42.656;21.156;2023-03-01T05:38:28;30.52;;;14.50;;
32198;SDS011;19221;42.656;21.156;2023-03-01T05:40:55;32.22;;;14.55;;
32198;SDS011;19221;42.656;21.156;2023-03-01T05:43:22;31.08;;;15.77;;
32198;SDS011;19221;42.656;21.156;2023-03-01T05:45:47;34.15;;;15.75;;
32198;SDS011;19221;42.656;21.156;2023-03-01T05:48:13;34.92;;;17.13;;
32198;SDS011;19221;42.656;21.156;2023-03-01T05:50:42;31.08;;;15.40;;
32198;SDS011;19221;42.656;21.156;2023-03-01T05:53:15;36.58;;;17.15;;
32198;SDS011;19221;42.656;21.156;2023-03-01T05:55:42;30.83;;;14.63;;
32198;SDS011;19221;42.656;21.156;2023-03-01T05:58:09;34.63;;;15.80;;
32198;SDS011;19221;42.656;21.156;2023-03-01T06:00:35;19.25;;;11.07;;
32198;SDS011;19221;42.656;21.156;2023-03-01T06:03:01;12.63;;;8.45;;
32198;SDS011;19221;42.656;21.156;2023-03-01T06:05:27;15.68;;;8.45;;
32198;SDS011;19221;42.656;21.156;2023-03-01T06:07:53;12.88;;;8.10;;
32198;SDS011;19221;42.656;21.156;2023-03-01T06:10:19;16.92;;;9.68;;
32198;SDS011;19221;42.656;21.156;2023-03-01T06:12:46;19.38;;;11.00;;
32198;SDS011;19221;42.656;21.156;2023-03-01T06:15:12;15.18;;;9.98;;
32198;SDS011;19221;42.656;21.156;2023-03-01T06:17:39;17.23;;;10.27;;
32198;SDS011;19221;42.656;21.156;2023-03-01T06:20:08;15.23;;;9.80;;
32198;SDS011;19221;42.656;21.156;2023-03-01T06:22:34;14.55;;;9.85;;
32198;SDS011;19221;42.656;21.156;2023-03-01T06:24:59;15.82;;;9.93;;
32198;SDS011;19221;42.656;21.156;2023-03-01T06:27:25;13.90;;;9.85;;
32198;SDS011;19221;42.656;21.156;2023-03-01T06:29:51;21.00;;;14.05;;
32198;SDS011;19221;42.656;21.156;2023-03-01T06:32:17;21.50;;;12.63;;
32198;SDS011;19221;42.656;21.156;2023-03-01T06:34:43;18.73;;;12.60;;
32198;SDS011;19221;42.656;21.156;2023-03-01T06:37:09;19.13;;;12.00;;
32198;SDS011;19221;42.656;21.156;2023-03-01T06:39:35;17.50;;;11.38;;
32198;SDS011;19221;42.656;21.156;2023-03-01T06:42:00;23.40;;;13.00;;
32198;SDS011;19221;42.656;21.156;2023-03-01T06:44:26;24.00;;;13.48;;
32198;SDS011;19221;42.656;21.156;2023-03-01T06:46:52;24.10;;;13.73;;
32198;SDS011;19221;42.656;21.156;2023-03-01T06:49:18;20.42;;;12.35;;
32198;SDS011;19221;42.656;21.156;2023-03-01T06:51:45;19.60;;;12.85;;
32198;SDS011;19221;42.656;21.156;2023-03-01T06:54:11;23.90;;;13.80;;
32198;SDS011;19221;42.656;21.156;2023-03-01T06:56:37;19.58;;;12.50;;
32198;SDS011;19221;42.656;21.156;2023-03-01T06:59:03;19.60;;;12.68;;
32198;SDS011;19221;42.656;21.156;2023-03-01T07:01:29;32.13;;;12.07;;
32198;SDS011;19221;42.656;21.156;2023-03-01T07:03:55;23.38;;;14.15;;
32198;SDS011;19221;42.656;21.156;2023-03-01T07:06:21;21.23;;;13.15;;
32198;SDS011;19221;42.656;21.156;2023-03-01T07:08:47;20.95;;;13.07;;
32198;SDS011;19221;42.656;21.156;2023-03-01T07:11:13;23.67;;;14.65;;
32198;SDS011;19221;42.656;21.156;2023-03-01T07:13:39;24.10;;;14.95;;
32198;SDS011;19221;42.656;21.156;2023-03-01T07:16:04;21.80;;;13.27;;
32198;SDS011;19221;42.656;21.156;2023-03-01T07:18:30;17.67;;;12.35;;
32198;SDS011;19221;42.656;21.156;2023-03-01T07:20:56;21.98;;;13.07;;
32198;SDS011;19221;42.656;21.156;2023-03-01T07:23:21;18.25;;;12.15;;
32198;SDS011;19221;42.656;21.156;2023-03-01T07:25:51;19.67;;;13.07;;
32198;SDS011;19221;42.656;21.156;2023-03-01T07:28:17;17.75;;;11.75;;
32198;SDS011;19221;42.656;21.156;2023-03-01T07:30:43;24.30;;;13.98;;
32198;SDS011;19221;42.656;21.156;2023-03-01T07:33:08;22.50;;;12.68;;
32198;SDS011;19221;42.656;21.156;2023-03-01T07:35:34;21.15;;;12.40;;
32198;SDS011;19221;42.656;21.156;2023-03-01T07:37:59;17.85;;;10.88;;
32198;SDS011;19221;42.656;21.156;2023-03-01T07:40:25;16.42;;;10.98;;
32198;SDS011;19221;42.656;21.156;2023-03-01T07:42:54;21.25;;;12.00;;
32198;SDS011;19221;42.656;21.156;2023-03-01T07:45:20;21.27;;;12.75;;
32198;SDS011;19221;42.656;21.156;2023-03-01T07:47:46;24.08;;;13.95;;
32198;SDS011;19221;42.656;21.156;2023-03-01T07:50:12;23.83;;;13.70;;
32198;SDS011;19221;42.656;21.156;2023-03-01T07:52:38;22.30;;;14.27;;
32198;SDS011;19221;42.656;21.156;2023-03-01T07:55:04;23.10;;;14.48;;
32198;SDS011;19221;42.656;21.156;2023-03-01T07:57:30;28.30;;;14.88;;
32198;SDS011;19221;42.656;21.156;2023-03-01T07:59:56;26.40;;;14.82;;
32198;SDS011;19221;42.656;21.156;2023-03-01T08:02:22;28.38;;;15.90;;
32198;SDS011;19221;42.656;21.156;2023-03-01T08:04:48;29.67;;;14.75;;
32198;SDS011;19221;42.656;21.156;2023-03-01T08:07:14;34.38;;;16.58;;
32198;SDS011;19221;42.656;21.156;2023-03-01T08:09:39;32.53;;;17.92;;
32198;SDS011;19221;42.656;21.156;2023-03-01T08:12:05;28.70;;;17.95;;
32198;SDS011;19221;42.656;21.156;2023-03-01T08:14:33;32.33;;;17.00;;
32198;SDS011;19221;42.656;21.156;2023-03-01T08:16:59;29.77;;;17.92;;
32198;SDS011;19221;42.656;21.156;2023-03-01T08:19:25;35.15;;;15.65;;
32198;SDS011;19221;42.656;21.156;2023-03-01T08:21:53;26.15;;;14.85;;
32198;SDS011;19221;42.656;21.156;2023-03-01T08:24:18;39.22;;;19.75;;
32198;SDS011;19221;42.656;21.156;2023-03-01T08:26:44;35.35;;;20.42;;
32198;SDS011;19221;42.656;21.156;2023-03-01T08:29:10;34.42;;;19.88;;
32198;SDS011;19221;42.656;21.156;2023-03-01T08:31:37;34.80;;;20.92;;
32198;SDS011;19221;42.656;21.156;2023-03-01T08:34:09;36.03;;;20.85;;
32198;SDS011;19221;42.656;21.156;2023-03-01T08:36:36;26.27;;;16.88;;
32198;SDS011;19221;42.656;21.156;2023-03-01T08:39:02;25.60;;;16.92;;
32198;SDS011;19221;42.656;21.156;2023-03-01T08:41:28;31.50;;;17.77;;
32198;SDS011;19221;42.656;21.156;2023-03-01T08:43:54;24.88;;;15.68;;
32198;SDS011;19221;42.656;21.156;2023-03-01T08:46:24;29.08;;;16.00;;
32198;SDS011;19221;42.656;21.156;2023-03-01T08:48:50;30.17;;;18.05;;
32198;SDS011;19221;42.656;21.156;2023-03-01T08:51:16;29.98;;;18.88;;
32198;SDS011;19221;42.656;21.156;2023-03-01T08:53:43;41.08;;;21.42;;
32198;SDS011;19221;42.656;21.156;2023-03-01T08:56:10;33.25;;;18.40;;
32198;SDS011;19221;42.656;21.156;2023-03-01T08:58:36;25.58;;;14.68;;
32198;SDS011;19221;42.656;21.156;2023-03-01T09:01:08;25.13;;;16.25;;
32198;SDS011;19221;42.656;21.156;2023-03-01T09:03:34;29.83;;;18.88;;
32198;SDS011;19221;42.656;21.156;2023-03-01T09:06:00;33.70;;;18.77;;
32198;SDS011;19221;42.656;21.156;2023-03-01T09:08:27;43.75;;;24.08;;
32198;SDS011;19221;42.656;21.156;2023-03-01T09:10:53;32.88;;;19.80;;
32198;SDS011;19221;42.656;21.156;2023-03-01T09:13:20;24.75;;;15.68;;
32198;SDS011;19221;42.656;21.156;2023-03-01T09:15:45;31.77;;;16.95;;
32198;SDS011;19221;42.656;21.156;2023-03-01T09:18:11;28.88;;;17.77;;
32198;SDS011;19221;42.656;21.156;2023-03-01T09:20:37;29.13;;;16.92;;
32198;SDS011;19221;42.656;21.156;2023-03-01T09:23:02;25.58;;;16.70;;
32198;SDS011;19221;42.656;21.156;2023-03-01T09:25:28;26.27;;;15.75;;
32198;SDS011;19221;42.656;21.156;2023-03-01T09:27:54;27.92;;;17.13;;
32198;SDS011;19221;42.656;21.156;2023-03-01T09:30:20;26.58;;;15.80;;
32198;SDS011;19221;42.656;21.156;2023-03-01T09:32:46;29.00;;;17.77;;
32198;SDS011;19221;42.656;21.156;2023-03-01T09:35:12;38.00;;;21.85;;
32198;SDS011;19221;42.656;21.156;2023-03-01T09:37:38;28.95;;;17.13;;
32198;SDS011;19221;42.656;21.156;2023-03-01T09:40:04;31.05;;;17.73;;
32198;SDS011;19221;42.656;21.156;2023-03-01T09:42:32;33.00;;;20.00;;
32198;SDS011;19221;42.656;21.156;2023-03-01T09:44:59;20.08;;;12.25;;
32198;SDS011;19221;42.656;21.156;2023-03-01T09:47:26;18.73;;;10.40;;
32198;SDS011;19221;42.656;21.156;2023-03-01T09:52:24;19.05;;;11.75;;
32198;SDS011;19221;42.656;21.156;2023-03-01T09:54:54;22.50;;;15.07;;
32198;SDS011;19221;42.656;21.156;2023-03-01T09:57:21;28.15;;;16.45;;
32198;SDS011;19221;42.656;21.156;2023-03-01T10:02:49;22.83;;;15.05;;
32198;SDS011;19221;42.656;21.156;2023-03-01T10:05:26;22.48;;;13.90;;
32198;SDS011;19221;42.656;21.156;2023-03-01T10:10:37;27.50;;;16.33;;
32198;SDS011;19221;42.656;21.156;2023-03-01T10:15:56;33.45;;;18.92;;
32198;SDS011;19221;42.656;21.156;2023-03-01T10:18:26;28.98;;;18.48;;
32198;SDS011;19221;42.656;21.156;2023-03-01T10:20:54;32.35;;;19.10;;
32198;SDS011;19221;42.656;21.156;2023-03-01T10:23:22;28.00;;;15.45;;
32198;SDS011;19221;42.656;21.156;2023-03-01T10:30:51;24.65;;;15.18;;
32198;SDS011;19221;42.656;21.156;2023-03-01T10:33:22;20.52;;;12.30;;
32198;SDS011;19221;42.656;21.156;2023-03-01T10:35:49;17.93;;;10.47;;
32198;SDS011;19221;42.656;21.156;2023-03-01T10:38:15;17.17;;;10.73;;
32198;SDS011;19221;42.656;21.156;2023-03-01T10:43:16;19.58;;;13.27;;
32198;SDS011;19221;42.656;21.156;2023-03-01T10:45:41;25.08;;;15.18;;
32198;SDS011;19221;42.656;21.156;2023-03-01T10:50:37;22.83;;;14.85;;
32198;SDS011;19221;42.656;21.156;2023-03-01T10:53:04;23.27;;;15.18;;
32198;SDS011;19221;42.656;21.156;2023-03-01T10:55:37;35.55;;;17.20;;
32198;SDS011;19221;42.656;21.156;2023-03-01T10:58:15;25.25;;;14.60;;
32198;SDS011;19221;42.656;21.156;2023-03-01T11:00:55;26.35;;;15.77;;
32198;SDS011;19221;42.656;21.156;2023-03-01T11:03:37;32.28;;;16.75;;
32198;SDS011;19221;42.656;21.156;2023-03-01T11:08:47;28.38;;;14.90;;
32198;SDS011;19221;42.656;21.156;2023-03-01T11:11:33;29.95;;;16.85;;
32198;SDS011;19221;42.656;21.156;2023-03-01T11:14:00;32.20;;;16.25;;
32198;SDS011;19221;42.656;21.156;2023-03-01T11:16:29;25.20;;;15.43;;
32198;SDS011;19221;42.656;21.156;2023-03-01T11:19:03;28.42;;;16.05;;
32198;SDS011;19221;42.656;21.156;2023-03-01T11:21:29;40.17;;;21.25;;
32198;SDS011;19221;42.656;21.156;2023-03-01T11:23:57;34.97;;;19.15;;
32198;SDS011;19221;42.656;21.156;2023-03-01T11:26:25;25.45;;;16.45;;
32198;SDS011;19221;42.656;21.156;2023-03-01T11:28:51;29.70;;;15.52;;
32198;SDS011;19221;42.656;21.156;2023-03-01T11:31:19;27.00;;;15.65;;
32198;SDS011;19221;42.656;21.156;2023-03-01T11:33:47;25.42;;;15.68;;
32198;SDS011;19221;42.656;21.156;2023-03-01T11:36:30;28.02;;;15.27;;
32198;SDS011;19221;42.656;21.156;2023-03-01T11:39:01;22.73;;;14.55;;
32198;SDS011;19221;42.656;21.156;2023-03-01T11:41:30;30.27;;;16.55;;
32198;SDS011;19221;42.656;21.156;2023-03-01T11:44:00;24.75;;;13.73;;
32198;SDS011;19221;42.656;21.156;2023-03-01T11:48:56;29.73;;;18.10;;
32198;SDS011;19221;42.656;21.156;2023-03-01T11:51:37;31.55;;;17.83;;
32198;SDS011;19221;42.656;21.156;2023-03-01T11:56:43;25.13;;;16.40;;
32198;SDS011;19221;42.656;21.156;2023-03-01T12:09:56;42.83;;;25.25;;
32198;SDS011;19221;42.656;21.156;2023-03-01T12:22:33;47.22;;;25.98;;
32198;SDS011;19221;42.656;21.156;2023-03-01T12:27:52;47.47;;;24.92;;
32198;SDS011;19221;42.656;21.156;2023-03-01T12:30:25;50.17;;;26.73;;
32198;SDS011;19221;42.656;21.156;2023-03-01T12:32:55;47.22;;;26.17;;
32198;SDS011;19221;42.656;21.156;2023-03-01T12:41:08;49.15;;;27.42;;
32198;SDS011;19221;42.656;21.156;2023-03-01T12:46:21;29.80;;;17.65;;
32198;SDS011;19221;42.656;21.156;2023-03-01T12:51:22;24.30;;;14.73;;
32198;SDS011;19221;42.656;21.156;2023-03-01T12:53:48;40.92;;;18.52;;
32198;SDS011;19221;42.656;21.156;2023-03-01T12:56:24;24.55;;;14.68;;
32198;SDS011;19221;42.656;21.156;2023-03-01T13:06:29;22.25;;;14.13;;
32198;SDS011;19221;42.656;21.156;2023-03-01T13:09:03;26.25;;;14.95;;
32198;SDS011;19221;42.656;21.156;2023-03-01T13:11:29;34.30;;;16.35;;
32198;SDS011;19221;42.656;21.156;2023-03-01T13:16:40;27.08;;;16.73;;
32198;SDS011;19221;42.656;21.156;2023-03-01T13:19:10;33.90;;;17.90;;
32198;SDS011;19221;42.656;21.156;2023-03-01T13:21:38;36.28;;;19.73;;
32198;SDS011;19221;42.656;21.156;2023-03-01T13:24:03;34.28;;;18.52;;
32198;SDS011;19221;42.656;21.156;2023-03-01T13:26:29;29.98;;;18.35;;
32198;SDS011;19221;42.656;21.156;2023-03-01T13:28:56;36.83;;;20.92;;
32198;SDS011;19221;42.656;21.156;2023-03-01T13:33:54;43.90;;;20.02;;
32198;SDS011;19221;42.656;21.156;2023-03-01T13:46:54;40.17;;;20.38;;
32198;SDS011;19221;42.656;21.156;2023-03-01T13:49:22;39.13;;;21.55;;
32198;SDS011;19221;42.656;21.156;2023-03-01T13:51:50;42.25;;;23.80;;
32198;SDS011;19221;42.656;21.156;2023-03-01T13:54:21;41.28;;;21.55;;
32198;SDS011;19221;42.656;21.156;2023-03-01T13:56:48;40.30;;;21.85;;
32198;SDS011;19221;42.656;21.156;2023-03-01T13:59:15;44.33;;;22.20;;
32198;SDS011;19221;42.656;21.156;2023-03-01T14:01:41;44.28;;;23.20;;
32198;SDS011;19221;42.656;21.156;2023-03-01T14:04:21;53.53;;;25.08;;
32198;SDS011;19221;42.656;21.156;2023-03-01T14:06:47;35.55;;;16.85;;
32198;SDS011;19221;42.656;21.156;2023-03-01T14:09:17;36.88;;;16.98;;
32198;SDS011;19221;42.656;21.156;2023-03-01T14:19:25;32.08;;;16.10;;
32198;SDS011;19221;42.656;21.156;2023-03-01T14:24:29;29.38;;;15.18;;
32198;SDS011;19221;42.656;21.156;2023-03-01T14:26:58;38.85;;;15.68;;
32198;SDS011;19221;42.656;21.156;2023-03-01T14:29:34;32.78;;;16.95;;
32198;SDS011;19221;42.656;21.156;2023-03-01T14:32:10;31.20;;;16.67;;
32198;SDS011;19221;42.656;21.156;2023-03-01T14:34:38;43.25;;;19.58;;
32198;SDS011;19221;42.656;21.156;2023-03-01T14:37:11;47.78;;;23.98;;
32198;SDS011;19221;42.656;21.156;2023-03-01T14:39:37;53.75;;;22.13;;
32198;SDS011;19221;42.656;21.156;2023-03-01T14:42:04;41.60;;;22.73;;
32198;SDS011;19221;42.656;21.156;2023-03-01T14:44:29;56.13;;;28.60;;
32198;SDS011;19221;42.656;21.156;2023-03-01T14:46:59;50.85;;;25.92;;
32198;SDS011;19221;42.656;21.156;2023-03-01T14:49:29;51.85;;;24.45;;
32198;SDS011;19221;42.656;21.156;2023-03-01T14:52:02;43.03;;;22.67;;
32198;SDS011;19221;42.656;21.156;2023-03-01T14:57:00;47.63;;;24.75;;
32198;SDS011;19221;42.656;21.156;2023-03-01T14:59:26;54.97;;;26.85;;
32198;SDS011;19221;42.656;21.156;2023-03-01T15:01:53;46.33;;;26.52;;
32198;SDS011;19221;42.656;21.156;2023-03-01T15:04:20;45.50;;;24.45;;
32198;SDS011;19221;42.656;21.156;2023-03-01T15:06:47;48.95;;;23.13;;
32198;SDS011;19221;42.656;21.156;2023-03-01T15:09:14;52.97;;;25.63;;
32198;SDS011;19221;42.656;21.156;2023-03-01T15:11:41;64.82;;;33.33;;
32198;SDS011;19221;42.656;21.156;2023-03-01T15:16:53;61.50;;;29.85;;
32198;SDS011;19221;42.656;21.156;2023-03-01T15:19:19;56.42;;;29.83;;
32198;SDS011;19221;42.656;21.156;2023-03-01T15:21:46;56.72;;;28.33;;
32198;SDS011;19221;42.656;21.156;2023-03-01T15:24:16;61.63;;;32.78;;
32198;SDS011;19221;42.656;21.156;2023-03-01T15:29:19;58.72;;;32.05;;
32198;SDS011;19221;42.656;21.156;2023-03-01T15:34:33;90.43;;;49.90;;
32198;SDS011;19221;42.656;21.156;2023-03-01T15:37:00;55.13;;;32.67;;
32198;SDS011;19221;42.656;21.156;2023-03-01T15:42:11;64.00;;;35.92;;
32198;SDS011;19221;42.656;21.156;2023-03-01T15:44:38;64.07;;;32.05;;
32198;SDS011;19221;42.656;21.156;2023-03-01T15:47:05;63.53;;;33.65;;
32198;SDS011;19221;42.656;21.156;2023-03-01T15:52:02;70.82;;;36.95;;
32198;SDS011;19221;42.656;21.156;2023-03-01T15:54:28;63.47;;;33.92;;
32198;SDS011;19221;42.656;21.156;2023-03-01T15:56:54;69.57;;;36.25;;
32198;SDS011;19221;42.656;21.156;2023-03-01T15:59:20;71.20;;;39.00;;
32198;SDS011;19221;42.656;21.156;2023-03-01T16:01:47;66.90;;;34.20;;
32198;SDS011;19221;42.656;21.156;2023-03-01T16:04:14;56.28;;;31.00;;
32198;SDS011;19221;42.656;21.156;2023-03-01T16:06:52;47.13;;;24.88;;
32198;SDS011;19221;42.656;21.156;2023-03-01T16:09:21;40.22;;;21.58;;
32198;SDS011;19221;42.656;21.156;2023-03-01T16:11:47;48.78;;;20.10;;
32198;SDS011;19221;42.656;21.156;2023-03-01T16:14:14;31.95;;;18.25;;
32198;SDS011;19221;42.656;21.156;2023-03-01T16:16:41;36.22;;;19.38;;
32198;SDS011;19221;42.656;21.156;2023-03-01T16:19:07;43.05;;;21.35;;
32198;SDS011;19221;42.656;21.156;2023-03-01T16:21:35;40.92;;;20.58;;
32198;SDS011;19221;42.656;21.156;2023-03-01T16:24:01;33.30;;;16.65;;
32198;SDS011;19221;42.656;21.156;2023-03-01T16:26:27;28.60;;;15.63;;
32198;SDS011;19221;42.656;21.156;2023-03-01T16:28:56;36.53;;;18.10;;